createdAt,value
2022-10-01T00:02:19.778Z,99271.72
2022-10-01T00:07:23.146Z,99271.34
2022-10-01T00:12:26.244Z,99269.88
2022-10-01T00:17:30.155Z,99274.41
2022-10-01T00:22:36.428Z,99272.61
2022-10-01T00:27:40.053Z,99275.67
2022-10-01T00:32:43.096Z,99285.09
2022-10-01T00:37:51.188Z,99279.94
2022-10-01T00:42:54.373Z,99288.20
2022-10-01T00:48:03.404Z,99294.42
2022-10-01T00:53:13.140Z,99292.92
2022-10-01T00:58:16.387Z,99275.02
2022-10-01T01:03:19.555Z,99273.77
2022-10-01T01:08:22.836Z,99281.54
2022-10-01T01:14:06.233Z,99286.18
2022-10-01T01:19:50.828Z,99283.75
2022-10-01T01:25:21.802Z,99269.84
2022-10-01T01:30:24.962Z,99265.89
2022-10-01T01:35:35.038Z,99271.75
2022-10-01T01:40:41.767Z,99258.47
2022-10-01T01:45:45.731Z,99258.51
2022-10-01T01:50:59.300Z,99262.05
2022-10-01T01:56:06.445Z,99262.02
2022-10-01T02:01:40.398Z,99262.25
2022-10-01T02:07:20.665Z,99247.44
2022-10-01T02:12:35.722Z,99242.20
2022-10-01T02:18:07.449Z,99244.65
2022-10-01T02:23:18.092Z,99255.31
2022-10-01T02:28:24.160Z,99264.98
2022-10-01T02:33:36.544Z,99273.61
2022-10-01T02:38:43.803Z,99264.27
2022-10-01T02:44:11.967Z,99259.54
2022-10-01T02:49:15.154Z,99254.25
2022-10-01T02:54:42.691Z,99250.30
2022-10-01T02:59:45.829Z,99263.67
2022-10-01T03:04:48.985Z,99266.96
2022-10-01T03:09:52.371Z,99262.95
2022-10-01T03:14:55.568Z,99266.54
2022-10-01T03:19:58.683Z,99261.30
2022-10-01T03:25:01.986Z,99250.56
2022-10-01T03:30:06.126Z,99247.88
2022-10-01T03:35:10.042Z,99255.52
2022-10-01T03:40:13.226Z,99258.80
2022-10-01T03:45:16.446Z,99260.20
2022-10-01T03:50:22.110Z,99258.77
2022-10-01T03:55:25.606Z,99267.73
2022-10-01T04:00:28.706Z,99267.37
2022-10-01T04:05:31.781Z,99265.06
2022-10-01T04:10:35.456Z,99266.27
2022-10-01T04:15:38.275Z,99263.70
2022-10-01T04:20:42.749Z,99256.00
2022-10-01T04:25:45.940Z,99249.80
2022-10-01T04:30:49.095Z,99240.91
2022-10-01T04:35:52.240Z,99235.08
2022-10-01T04:40:55.543Z,99239.44
2022-10-01T04:45:59.031Z,99247.51
2022-10-01T04:51:02.138Z,99250.95
2022-10-01T04:56:05.582Z,99254.88
2022-10-01T05:01:08.765Z,99252.80
2022-10-01T05:06:11.939Z,99252.52
2022-10-01T05:11:15.044Z,99250.83
2022-10-01T05:16:18.337Z,99240.21
2022-10-01T05:21:21.544Z,99234.98
2022-10-01T05:26:25.402Z,99243.17
2022-10-01T05:31:28.436Z,99240.02
2022-10-01T05:36:31.789Z,99244.47
2022-10-01T05:41:35.156Z,99242.23
2022-10-01T05:46:38.341Z,99245.70
2022-10-01T05:51:41.366Z,99248.45
2022-10-01T05:56:44.478Z,99247.14
2022-10-01T06:01:48.136Z,99253.38
2022-10-01T06:06:51.148Z,99247.73
2022-10-01T06:11:54.344Z,99248.91
2022-10-01T06:16:57.496Z,99249.75
2022-10-01T06:22:00.666Z,99248.31
2022-10-01T06:27:03.992Z,99250.41
2022-10-01T06:32:08.746Z,99249.19
2022-10-01T06:37:11.848Z,99247.53
2022-10-01T06:42:14.833Z,99248.56
2022-10-01T06:47:18.079Z,99256.11
2022-10-01T06:52:40.209Z,99254.80
2022-10-01T06:57:43.575Z,99253.92
2022-10-01T07:02:46.812Z,99248.69
2022-10-01T07:07:50.479Z,99247.89
2022-10-01T07:12:53.491Z,99247.34
2022-10-01T07:17:56.626Z,99247.71
2022-10-01T07:23:01.386Z,99245.65
2022-10-01T07:28:08.275Z,99241.40
2022-10-01T07:33:11.270Z,99244.77
2022-10-01T07:38:14.323Z,99248.34
2022-10-01T07:43:17.406Z,99244.54
2022-10-01T07:48:20.516Z,99239.15
2022-10-01T07:53:25.731Z,99235.46
2022-10-01T07:58:28.796Z,99227.05
2022-10-01T08:03:31.789Z,99230.83
2022-10-01T08:08:34.879Z,99229.61
2022-10-01T08:13:38.043Z,99228.36
2022-10-01T08:18:41.241Z,99242.83
2022-10-01T08:23:44.268Z,99248.49
2022-10-01T08:28:47.243Z,99254.42
2022-10-01T08:33:50.994Z,99253.60
2022-10-01T08:38:54.083Z,99248.35
2022-10-01T08:43:59.104Z,99243.95
2022-10-01T08:49:07.159Z,99241.54
2022-10-01T08:54:59.836Z,99229.88
2022-10-01T09:00:08.703Z,99226.05
2022-10-01T09:05:31.700Z,99220.05
2022-10-01T09:10:37.486Z,99210.85
2022-10-01T09:16:13.626Z,99213.22
2022-10-01T09:21:40.015Z,99215.52
2022-10-01T09:26:49.722Z,99209.98
2022-10-01T09:31:55.339Z,99204.79
2022-10-01T09:37:15.342Z,99201.13
2022-10-01T09:42:18.667Z,99196.33
2022-10-01T09:47:25.995Z,99200.44
2022-10-01T09:52:40.070Z,99195.65
2022-10-01T09:57:56.625Z,99188.45
2022-10-01T10:03:01.083Z,99181.63
2022-10-01T10:08:32.181Z,99173.05
2022-10-01T10:13:50.697Z,99171.94
2022-10-01T10:19:00.741Z,99170.30
2022-10-01T10:24:24.736Z,99162.17
2022-10-01T10:29:32.491Z,99158.64
2022-10-01T10:34:42.702Z,99149.07
2022-10-01T10:39:54.028Z,99149.91
2022-10-01T10:45:03.762Z,99137.13
2022-10-01T10:50:46.872Z,99123.89
2022-10-01T10:56:02.494Z,99111.26
2022-10-01T11:01:17.614Z,99098.12
2022-10-01T11:06:21.020Z,99087.64
2022-10-01T11:11:55.534Z,99066.95
2022-10-01T11:17:42.360Z,99061.64
2022-10-01T11:23:16.116Z,99055.00
2022-10-01T11:28:46.721Z,99047.66
2022-10-01T11:34:30.061Z,99036.06
2022-10-01T11:39:35.963Z,99028.41
2022-10-01T11:45:00.698Z,99015.69
2022-10-01T11:50:13.663Z,99007.16
2022-10-01T11:55:48.163Z,99005.29
2022-10-01T12:01:38.803Z,98989.71
2022-10-01T12:07:07.257Z,98982.77
2022-10-01T12:12:44.878Z,98967.48
2022-10-01T12:18:06.893Z,98965.30
2022-10-01T12:23:19.772Z,98959.02
2022-10-01T12:28:36.592Z,98950.54
2022-10-01T12:34:28.752Z,98946.10
2022-10-01T12:40:05.406Z,98944.06
2022-10-01T12:45:28.523Z,98938.29
2022-10-01T12:51:07.676Z,98934.87
2022-10-01T12:56:33.813Z,98923.28
2022-10-01T13:01:59.426Z,98915.83
2022-10-01T13:07:27.021Z,98901.63
2022-10-01T13:12:44.996Z,98896.47
2022-10-01T13:18:06.359Z,98890.14
2022-10-01T13:23:27.579Z,98881.36
2022-10-01T13:29:00.803Z,98878.02
2022-10-01T13:34:24.595Z,98871.83
2022-10-01T13:39:38.860Z,98869.91
2022-10-01T13:44:43.629Z,98858.27
2022-10-01T13:50:07.680Z,98854.62
2022-10-01T13:55:30.996Z,98857.86
2022-10-01T14:00:34.368Z,98851.70
2022-10-01T14:05:43.522Z,98848.45
2022-10-01T14:11:39.280Z,98841.36
2022-10-01T14:16:46.833Z,98843.31
2022-10-01T14:22:27.282Z,98832.99
2022-10-01T14:28:29.082Z,98828.17
2022-10-01T14:34:05.965Z,98825.16
2022-10-01T14:39:23.503Z,98813.65
2022-10-01T14:44:50.575Z,98801.64
2022-10-01T14:49:55.400Z,98801.77
2022-10-01T14:55:13.969Z,98794.73
2022-10-01T15:00:30.430Z,98790.03
2022-10-01T15:05:36.038Z,98786.25
2022-10-01T15:10:56.080Z,98772.57
2022-10-01T15:16:00.074Z,98760.55
2022-10-01T15:21:06.889Z,98745.88
2022-10-01T15:26:18.725Z,98744.73
2022-10-01T15:31:22.104Z,98745.05
2022-10-01T15:36:25.093Z,98741.14
2022-10-01T15:41:34.093Z,98729.97
2022-10-01T15:46:37.445Z,98722.85
2022-10-01T15:52:11.001Z,98716.25
2022-10-01T15:57:23.706Z,98711.70
2022-10-01T16:02:31.710Z,98705.57
2022-10-01T16:07:35.617Z,98702.90
2022-10-01T16:12:39.209Z,98698.02
2022-10-01T16:17:53.719Z,98695.52
2022-10-01T16:23:35.038Z,98690.77
2022-10-01T16:28:38.522Z,98690.05
2022-10-01T16:33:41.589Z,98682.65
2022-10-01T16:38:44.583Z,98677.89
2022-10-01T16:43:47.673Z,98671.27
2022-10-01T16:48:54.087Z,98669.23
2022-10-01T16:53:58.187Z,98669.08
2022-10-01T16:59:01.282Z,98659.98
2022-10-01T17:04:04.911Z,98654.95
2022-10-01T17:09:08.956Z,98653.85
2022-10-01T17:14:18.723Z,98645.78
2022-10-01T17:19:22.269Z,98642.79
2022-10-01T17:24:25.665Z,98644.39
2022-10-01T17:29:31.043Z,98644.25
2022-10-01T17:34:35.925Z,98634.70
2022-10-01T17:39:39.877Z,98635.20
2022-10-01T17:44:42.947Z,98629.52
2022-10-01T17:49:46.146Z,98625.70
2022-10-01T17:54:49.686Z,98625.63
2022-10-01T17:59:52.560Z,98630.05
2022-10-01T18:04:55.719Z,98632.52
2022-10-01T18:09:58.779Z,98626.10
2022-10-01T18:15:02.546Z,98619.55
2022-10-01T18:20:08.171Z,98615.63
2022-10-01T18:25:14.055Z,98613.25
2022-10-01T18:30:18.456Z,98604.96
2022-10-01T18:35:31.875Z,98607.11
2022-10-01T18:40:44.145Z,98604.17
2022-10-01T18:46:39.267Z,98604.20
2022-10-01T18:52:05.931Z,98596.21
2022-10-01T18:57:21.247Z,98595.09
2022-10-01T19:02:32.169Z,98586.59
2022-10-01T19:07:50.286Z,98594.75
2022-10-01T19:13:23.232Z,98597.23
2022-10-01T19:18:38.039Z,98592.40
2022-10-01T19:23:55.972Z,98585.33
2022-10-01T19:29:28.864Z,98589.65
2022-10-01T19:34:50.241Z,98583.15
2022-10-01T19:40:02.296Z,98578.48
2022-10-01T19:45:29.196Z,98582.35
2022-10-01T19:50:37.397Z,98580.14
2022-10-01T19:55:40.434Z,98576.75
2022-10-01T20:00:47.408Z,98584.58
2022-10-01T20:06:09.812Z,98580.02
2022-10-01T20:11:51.851Z,98576.73
2022-10-01T20:16:54.975Z,98573.16
2022-10-01T20:22:33.390Z,98576.17
2022-10-01T20:27:55.371Z,98574.36
2022-10-01T20:33:12.009Z,98575.06
2022-10-01T20:38:49.937Z,98576.45
2022-10-01T20:44:00.397Z,98568.91
2022-10-01T20:49:27.431Z,98574.15
2022-10-01T20:54:39.327Z,98578.23
2022-10-01T20:59:51.606Z,98581.15
2022-10-01T21:05:34.974Z,98588.99
2022-10-01T21:10:43.490Z,98599.20
2022-10-01T21:16:12.370Z,98618.16
2022-10-01T21:21:55.063Z,98624.92
2022-10-01T21:27:51.457Z,98625.35
2022-10-01T21:33:10.840Z,98618.92
2022-10-01T21:38:43.191Z,98626.45
2022-10-01T21:43:57.279Z,98632.98
2022-10-01T21:49:22.758Z,98636.81
2022-10-01T21:55:06.104Z,98633.39
2022-10-01T22:00:19.504Z,98630.89
2022-10-01T22:05:42.461Z,98638.65
2022-10-01T22:10:57.138Z,98634.98
2022-10-01T22:16:07.815Z,98635.59
2022-10-01T22:21:41.195Z,98639.10
2022-10-01T22:26:59.827Z,98640.33
2022-10-01T22:32:05.669Z,98640.38
2022-10-01T22:37:18.693Z,98635.44
2022-10-01T22:42:33.531Z,98637.08
2022-10-01T22:47:57.622Z,98643.80
2022-10-01T22:53:32.779Z,98642.69
2022-10-01T22:58:42.218Z,98641.91
2022-10-01T23:04:30.108Z,98648.44
2022-10-01T23:09:40.022Z,98653.73
2022-10-01T23:15:09.711Z,98657.10
2022-10-01T23:20:30.576Z,98658.17
2022-10-01T23:26:11.214Z,98664.16
2022-10-01T23:31:35.367Z,98670.36
2022-10-01T23:36:49.243Z,98678.31
2022-10-01T23:42:34.986Z,98683.36
2022-10-01T23:47:58.888Z,98686.09
2022-10-01T23:53:31.532Z,98692.69
2022-10-01T23:58:54.169Z,98694.69
